Time;durP1;ratioP1;P1;durP2;ratioP2;P2;SDS_P1;SDS_P2;PMS_P1;PMS_P2;Temp;Humidity;BMP_temperature;BMP_pressure;BME280_temperature;BME280_humidity;BME280_pressure;Samples;Min_cycle;Max_cycle;Signal;HPM_P1;HPM_P2
2023/01/13 00:01:45;;;;;;;;;;;;;;;;;;4996929;28;19957;-77
2023/01/13 00:04:11;;;;;;;;;;;;;;;;;;4996100;28;19914;-77
2023/01/13 00:06:37;;;;;;;;;;;;;;;;;;4978918;28;19913;-76
2023/01/13 00:09:03;;;;;;;;;;;;;;;;;;4978848;28;20367;-76
2023/01/13 00:11:29;;;;;;;;;;;;;;;;;;4996296;28;19909;-77
2023/01/13 00:13:55;;;;;;;;;;;;;;;;;;4979241;28;20322;-77
2023/01/13 00:16:21;;;;;;;;;;;;;;;;;;4995544;28;19910;-77
2023/01/13 00:18:46;;;;;;;;;;;;;;;;;;4994987;28;20064;-77
2023/01/13 00:21:13;;;;;;;;;;;;;;;;;;4995928;28;19916;-77
2023/01/13 00:23:39;;;;;;;;;;;;;;;;;;4978251;28;20048;-77
2023/01/13 00:26:04;;;;;;;;;;;;;;;;;;4978196;28;19910;-77
2023/01/13 00:28:30;;;;;;;;;;;;;;;;;;4978332;28;20373;-77
2023/01/13 00:30:57;;;;;;;;;;;;;;;;;;4995909;28;19909;-77
2023/01/13 00:33:23;;;;;;;;;;;;;;;;;;4978573;28;20313;-77
2023/01/13 00:35:49;;;;;;;;;;;;;;;;;;4995588;28;19914;-77
2023/01/13 00:38:15;;;;;;;;;;;;;;;;;;4977335;28;19910;-77
2023/01/13 00:40:40;;;;;;;;;;;;;;;;;;4978649;28;20393;-77
2023/01/13 00:43:22;;;;;;;;;;;;;;;;;;4977607;28;19917;-76
2023/01/13 00:45:50;;;;;;;;;;;;;;;;;;4995251;28;19910;-78
2023/01/13 00:48:16;;;;;;;;;;;;;;;;;;4977761;28;19916;-77
2023/01/13 00:50:42;;;;;;;;;;;;;;;;;;4978142;28;20007;-76
2023/01/13 00:53:08;;;;;;;;;;;;;;;;;;4978356;28;19910;-75
2023/01/13 00:55:34;;;;;;;;;;;;;;;;;;4977934;28;19910;-77
2023/01/13 00:58:02;;;;;;;;;;;;;;;;;;4995011;28;19952;-77
2023/01/13 01:00:28;;;;;;;;;;;;;;;;;;4995366;28;20370;-77
2023/01/13 01:02:54;;;;;;;;;;;;;;;;;;4978424;28;19916;-77
2023/01/13 01:05:20;;;;;;;;;;;;;;;;;;4978411;28;20342;-76
2023/01/13 01:07:46;;;;;;;;;;;;;;;;;;4994489;28;19963;-79
2023/01/13 01:10:11;;;;;;;;;;;;;;;;;;4995849;28;19913;-77
2023/01/13 01:12:37;;;;;;;;;;;;;;;;;;4978411;28;20367;-76
2023/01/13 01:15:04;;;;;;;;;;;;;;;;;;4977722;28;19910;-77
2023/01/13 01:17:30;;;;;;;;;;;;;;;;;;4977184;28;19909;-77
2023/01/13 01:19:56;;;;;;;;;;;;;;;;;;4995466;28;20017;-77
2023/01/13 01:22:22;;;;;;;;;;;;;;;;;;4994127;28;19910;-77
2023/01/13 01:24:48;;;;;;;;;;;;;;;;;;4978194;28;19914;-76
2023/01/13 01:27:14;;;;;;;;;;;;;;;;;;4978500;28;20366;-78
2023/01/13 01:29:40;;;;;;;;;;;;;;;;;;4978362;28;19914;-77
2023/01/13 01:32:06;;;;;;;;;;;;;;;;;;4978554;28;20298;-78
2023/01/13 01:34:32;;;;;;;;;;;;;;;;;;4995261;28;19910;-76
2023/01/13 01:36:57;;;;;;;;;;;;;;;;;;4995452;28;19964;-77
2023/01/13 01:39:23;;;;;;;;;;;;;;;;;;4978005;28;19909;-77
2023/01/13 01:44:34;;;;;;;;;;;;;;;;;;4994767;28;19921;-76
2023/01/13 01:47:00;;;;;;;;;;;;;;;;;;4994555;28;19910;-77
2023/01/13 01:49:26;;;;;;;;;;;;;;;;;;4995420;28;20409;-77
2023/01/13 01:51:52;;;;;;;;;;;;;;;;;;4982087;28;19921;-77
2023/01/13 01:54:18;;;;;;;;;;;;;;;;;;5000077;28;20013;-77
2023/01/13 01:56:43;;;;;;;;;;;;;;;;;;4999620;28;19910;-77
2023/01/13 01:59:09;;;;;;;;;;;;;;;;;;4982148;28;19937;-77
2023/01/13 02:01:35;;;;;;;;;;;;;;;;;;4999509;28;19910;-77
2023/01/13 02:04:01;;;;;;;;;;;;;;;;;;4981868;28;19914;-77
2023/01/13 02:06:27;;;;;;;;;;;;;;;;;;4981912;28;19910;-77
2023/01/13 02:08:53;;;;;;;;;;;;;;;;;;4982386;28;19910;-77
2023/01/13 02:12:28;;;;;;;;;;;;;;;;;;4982414;28;19920;-77
2023/01/13 02:14:05;;;;;;;;;;;;;;;;;;4998879;28;19973;-77
2023/01/13 02:16:31;;;;;;;;;;;;;;;;;;4982131;28;19941;-78
2023/01/13 02:18:56;;;;;;;;;;;;;;;;;;4997517;28;19917;-76
2023/01/13 02:21:22;;;;;;;;;;;;;;;;;;4981933;28;19982;-76
2023/01/13 02:26:33;;;;;;;;;;;;;;;;;;4999615;28;19972;-79
2023/01/13 02:31:43;;;;;;;;;;;;;;;;;;5000239;28;19956;-77
2023/01/13 02:34:09;;;;;;;;;;;;;;;;;;4999788;28;20322;-77
2023/01/13 02:36:35;;;;;;;;;;;;;;;;;;4981770;28;20576;-77
2023/01/13 02:39:01;;;;;;;;;;;;;;;;;;4981780;28;19910;-76
2023/01/13 02:44:11;;;;;;;;;;;;;;;;;;4998944;28;19921;-77
2023/01/13 02:46:37;;;;;;;;;;;;;;;;;;4981097;28;19914;-78
2023/01/13 02:49:03;;;;;;;;;;;;;;;;;;4981184;28;20286;-78
2023/01/13 02:51:29;;;;;;;;;;;;;;;;;;4981805;28;19921;-78
2023/01/13 02:53:55;;;;;;;;;;;;;;;;;;4981079;28;19906;-78
2023/01/13 02:56:21;;;;;;;;;;;;;;;;;;4981064;28;19910;-77
2023/01/13 02:58:47;;;;;;;;;;;;;;;;;;4997952;28;20009;-77
2023/01/13 03:01:13;;;;;;;;;;;;;;;;;;4997466;28;19910;-77
2023/01/13 03:03:39;;;;;;;;;;;;;;;;;;4981661;28;19972;-76
2023/01/13 03:06:05;;;;;;;;;;;;;;;;;;4980885;28;19909;-77
2023/01/13 03:08:31;;;;;;;;;;;;;;;;;;4997796;28;19917;-75
2023/01/13 03:10:56;;;;;;;;;;;;;;;;;;4980981;28;19910;-77
2023/01/13 03:13:22;;;;;;;;;;;;;;;;;;4980664;28;20410;-76
2023/01/13 03:15:48;;;;;;;;;;;;;;;;;;4998029;28;19910;-76
2023/01/13 03:18:14;;;;;;;;;;;;;;;;;;4980307;28;19913;-76
2023/01/13 03:20:40;;;;;;;;;;;;;;;;;;4998273;28;19972;-77
2023/01/13 03:23:06;;;;;;;;;;;;;;;;;;4980717;28;19910;-78
2023/01/13 03:25:32;;;;;;;;;;;;;;;;;;4979818;28;19913;-78
2023/01/13 03:27:58;;;;;;;;;;;;;;;;;;4980184;28;19913;-77
2023/01/13 03:30:24;;;;;;;;;;;;;;;;;;4980378;28;20391;-77
2023/01/13 03:32:49;;;;;;;;;;;;;;;;;;4980761;28;19914;-77
2023/01/13 03:35:15;;;;;;;;;;;;;;;;;;4997931;28;19917;-78
2023/01/13 03:37:41;;;;;;;;;;;;;;;;;;4980801;28;19935;-77
2023/01/13 03:40:07;;;;;;;;;;;;;;;;;;4978983;28;19910;-78
2023/01/13 03:42:33;;;;;;;;;;;;;;;;;;4977779;28;19988;-76
2023/01/13 03:44:59;;;;;;;;;;;;;;;;;;4979548;28;19925;-77
2023/01/13 03:47:25;;;;;;;;;;;;;;;;;;4980319;28;19957;-76
2023/01/13 03:49:51;;;;;;;;;;;;;;;;;;4979719;28;19910;-76
2023/01/13 03:52:17;;;;;;;;;;;;;;;;;;4996166;28;20008;-76
2023/01/13 03:54:42;;;;;;;;;;;;;;;;;;4997281;28;19914;-77
2023/01/13 03:57:08;;;;;;;;;;;;;;;;;;4980049;28;20291;-77
2023/01/13 03:59:34;;;;;;;;;;;;;;;;;;4979259;28;19916;-78
2023/01/13 04:02:00;;;;;;;;;;;;;;;;;;4979642;28;19909;-77
2023/01/13 04:04:26;;;;;;;;;;;;;;;;;;4989927;28;19984;-78
2023/01/13 04:06:52;;;;;;;;;;;;;;;;;;4999180;28;20453;-78
2023/01/13 04:09:18;;;;;;;;;;;;;;;;;;4999071;28;19916;-77
2023/01/13 04:11:44;;;;;;;;;;;;;;;;;;4999422;28;19910;-77
2023/01/13 04:14:10;;;;;;;;;;;;;;;;;;4998152;28;19968;-76
2023/01/13 04:16:36;;;;;;;;;;;;;;;;;;4998412;28;19909;-77
2023/01/13 04:19:02;;;;;;;;;;;;;;;;;;5016258;28;19917;-77
2023/01/13 04:21:28;;;;;;;;;;;;;;;;;;4998976;28;20006;-76
2023/01/13 04:23:54;;;;;;;;;;;;;;;;;;4998797;28;19917;-76
2023/01/13 04:26:22;;;;;;;;;;;;;;;;;;5016001;28;19920;-77
2023/01/13 04:28:48;;;;;;;;;;;;;;;;;;4998794;28;19993;-77
2023/01/13 04:31:14;;;;;;;;;;;;;;;;;;4998180;28;19964;-77
2023/01/13 04:33:40;;;;;;;;;;;;;;;;;;5016186;28;20008;-76
2023/01/13 04:36:05;;;;;;;;;;;;;;;;;;5016202;28;19910;-78
2023/01/13 04:38:31;;;;;;;;;;;;;;;;;;4997825;28;19916;-77
2023/01/13 04:40:57;;;;;;;;;;;;;;;;;;5016274;28;20356;-77
2023/01/13 04:43:23;;;;;;;;;;;;;;;;;;5016241;28;19909;-76
2023/01/13 04:45:49;;;;;;;;;;;;;;;;;;5016378;28;19913;-76
2023/01/13 04:48:15;;;;;;;;;;;;;;;;;;5015906;28;19935;-77
2023/01/13 04:50:41;;;;;;;;;;;;;;;;;;5015731;28;19964;-77
2023/01/13 04:53:07;;;;;;;;;;;;;;;;;;4997472;28;19915;-77
2023/01/13 04:55:33;;;;;;;;;;;;;;;;;;4998486;28;20008;-77
2023/01/13 04:57:59;;;;;;;;;;;;;;;;;;5015886;28;19914;-76
2023/01/13 05:00:24;;;;;;;;;;;;;;;;;;5014936;28;19910;-77
2023/01/13 05:02:50;;;;;;;;;;;;;;;;;;4998283;28;19909;-76
2023/01/13 05:05:16;;;;;;;;;;;;;;;;;;4998201;28;19920;-78
2023/01/13 05:07:42;;;;;;;;;;;;;;;;;;5015615;28;19916;-78
2023/01/13 05:10:08;;;;;;;;;;;;;;;;;;4998713;28;19910;-76
2023/01/13 05:18:03;;;;;;;;;;;;;;;;;;5015927;28;19921;-78
2023/01/13 05:20:29;;;;;;;;;;;;;;;;;;5016471;28;19917;-77
2023/01/13 05:25:40;;;;;;;;;;;;;;;;;;5018079;28;20044;-78
2023/01/13 05:28:06;;;;;;;;;;;;;;;;;;5002615;28;19953;-77
2023/01/13 05:30:31;;;;;;;;;;;;;;;;;;5019852;28;19909;-77
2023/01/13 05:32:57;;;;;;;;;;;;;;;;;;5019634;28;19916;-76
2023/01/13 05:35:23;;;;;;;;;;;;;;;;;;5001732;28;19909;-76
2023/01/13 05:37:49;;;;;;;;;;;;;;;;;;5001866;28;19913;-78
2023/01/13 05:43:18;;;;;;;;;;;;;;;;;;5020344;28;19920;-76
2023/01/13 05:45:45;;;;;;;;;;;;;;;;;;5002137;28;19913;-76
2023/01/13 05:48:11;;;;;;;;;;;;;;;;;;5001989;28;20378;-77
2023/01/13 05:50:37;;;;;;;;;;;;;;;;;;5002345;28;20051;-77
2023/01/13 05:53:03;;;;;;;;;;;;;;;;;;5020230;28;19909;-79
2023/01/13 05:55:29;;;;;;;;;;;;;;;;;;5020735;28;20397;-78
2023/01/13 05:57:54;;;;;;;;;;;;;;;;;;5001308;28;19909;-75
2023/01/13 06:00:20;;;;;;;;;;;;;;;;;;5019131;28;19968;-77
2023/01/13 06:02:46;;;;;;;;;;;;;;;;;;5001443;28;20377;-76
2023/01/13 06:05:12;;;;;;;;;;;;;;;;;;5000954;28;20362;-78
2023/01/13 06:07:38;;;;;;;;;;;;;;;;;;5000883;28;19909;-77
2023/01/13 06:10:04;;;;;;;;;;;;;;;;;;5018825;28;19909;-76
2023/01/13 06:12:30;;;;;;;;;;;;;;;;;;5000555;28;19980;-77
2023/01/13 06:14:56;;;;;;;;;;;;;;;;;;5000351;28;19921;-77
2023/01/13 06:17:22;;;;;;;;;;;;;;;;;;5018425;28;19972;-76
2023/01/13 06:19:48;;;;;;;;;;;;;;;;;;5018513;28;19918;-76
2023/01/13 06:22:13;;;;;;;;;;;;;;;;;;5000636;28;19942;-76
2023/01/13 06:24:39;;;;;;;;;;;;;;;;;;4999862;28;19918;-75
2023/01/13 06:27:05;;;;;;;;;;;;;;;;;;5000874;28;19916;-76
2023/01/13 06:29:31;;;;;;;;;;;;;;;;;;5000164;28;19909;-75
2023/01/13 06:31:57;;;;;;;;;;;;;;;;;;5009450;28;19937;-77
2023/01/13 06:34:23;;;;;;;;;;;;;;;;;;4981650;28;20389;-77
2023/01/13 06:36:49;;;;;;;;;;;;;;;;;;4998837;28;19916;-77
2023/01/13 06:39:15;;;;;;;;;;;;;;;;;;4999532;28;19910;-77
2023/01/13 06:44:25;;;;;;;;;;;;;;;;;;4997310;28;19976;-78
2023/01/13 06:46:51;;;;;;;;;;;;;;;;;;4979977;28;19914;-77
2023/01/13 06:49:17;;;;;;;;;;;;;;;;;;4997000;28;19957;-78
2023/01/13 06:51:43;;;;;;;;;;;;;;;;;;4997540;28;19963;-78
2023/01/13 06:54:09;;;;;;;;;;;;;;;;;;4980158;28;19910;-77
2023/01/13 06:56:35;;;;;;;;;;;;;;;;;;4979728;28;19910;-76
2023/01/13 06:59:01;;;;;;;;;;;;;;;;;;4979721;28;19961;-76
2023/01/13 07:01:26;;;;;;;;;;;;;;;;;;4996968;28;19916;-78
2023/01/13 07:03:52;;;;;;;;;;;;;;;;;;4979202;28;19920;-77
2023/01/13 07:06:18;;;;;;;;;;;;;;;;;;4979003;28;20363;-78
2023/01/13 07:08:44;;;;;;;;;;;;;;;;;;4996779;28;19910;-79
2023/01/13 07:11:10;;;;;;;;;;;;;;;;;;4979459;28;20363;-78
2023/01/13 07:16:23;;;;;;;;;;;;;;;;;;4997010;28;19917;-76
2023/01/13 07:18:48;;;;;;;;;;;;;;;;;;4996349;28;20000;-76
2023/01/13 07:21:18;;;;;;;;;;;;;;;;;;4979113;28;20388;-78
2023/01/13 07:23:44;;;;;;;;;;;;;;;;;;4996650;28;19918;-77
2023/01/13 07:26:10;;;;;;;;;;;;;;;;;;4996377;28;19914;-76
2023/01/13 07:28:36;;;;;;;;;;;;;;;;;;4996521;28;19906;-76
2023/01/13 07:31:02;;;;;;;;;;;;;;;;;;4996754;28;19910;-77
2023/01/13 07:33:31;;;;;;;;;;;;;;;;;;4979122;28;20367;-76
2023/01/13 07:35:57;;;;;;;;;;;;;;;;;;4996423;28;19910;-77
2023/01/13 07:38:23;;;;;;;;;;;;;;;;;;4996337;28;20001;-76
2023/01/13 07:40:49;;;;;;;;;;;;;;;;;;4995513;28;19906;-77
2023/01/13 07:43:33;;;;;;;;;;;;;;;;;;4996863;28;19910;-77
2023/01/13 07:45:59;;;;;;;;;;;;;;;;;;4979203;28;19917;-77
2023/01/13 07:48:25;;;;;;;;;;;;;;;;;;4979377;28;19916;-78
2023/01/13 07:50:51;;;;;;;;;;;;;;;;;;4979542;28;19916;-77
2023/01/13 07:53:18;;;;;;;;;;;;;;;;;;4997164;28;19917;-77
2023/01/13 07:55:44;;;;;;;;;;;;;;;;;;4978440;28;19960;-76
2023/01/13 07:58:10;;;;;;;;;;;;;;;;;;4978905;28;19914;-76
2023/01/13 08:00:35;;;;;;;;;;;;;;;;;;4996694;28;20561;-77
2023/01/13 08:03:01;;;;;;;;;;;;;;;;;;4978831;28;19910;-78
2023/01/13 08:05:27;;;;;;;;;;;;;;;;;;4979160;28;19914;-77
2023/01/13 08:07:53;;;;;;;;;;;;;;;;;;4989219;28;19921;-77
2023/01/13 08:10:19;;;;;;;;;;;;;;;;;;4959679;28;20102;-77
2023/01/13 08:15:30;;;;;;;;;;;;;;;;;;5003757;28;19936;-77
2023/01/13 08:17:56;;;;;;;;;;;;;;;;;;4998265;28;19910;-77
2023/01/13 08:20:22;;;;;;;;;;;;;;;;;;5016673;28;19977;-78
2023/01/13 08:22:48;;;;;;;;;;;;;;;;;;4998333;28;19909;-77
2023/01/13 08:25:14;;;;;;;;;;;;;;;;;;5016471;28;19921;-77
2023/01/13 08:27:39;;;;;;;;;;;;;;;;;;4998523;28;19914;-77
2023/01/13 08:30:05;;;;;;;;;;;;;;;;;;4998419;28;19969;-77
2023/01/13 08:32:31;;;;;;;;;;;;;;;;;;5016481;28;19969;-77
2023/01/13 08:34:57;;;;;;;;;;;;;;;;;;5016328;28;20369;-77
2023/01/13 08:37:23;;;;;;;;;;;;;;;;;;4999028;28;19916;-77
2023/01/13 08:39:49;;;;;;;;;;;;;;;;;;4998610;28;19909;-75
2023/01/13 08:42:15;;;;;;;;;;;;;;;;;;4998398;28;19940;-77
2023/01/13 08:44:41;;;;;;;;;;;;;;;;;;4996534;28;19913;-77
2023/01/13 08:47:07;;;;;;;;;;;;;;;;;;4998012;28;19917;-77
2023/01/13 08:49:33;;;;;;;;;;;;;;;;;;4997458;28;20259;-77
2023/01/13 08:51:59;;;;;;;;;;;;;;;;;;5016353;28;19910;-78
2023/01/13 08:54:24;;;;;;;;;;;;;;;;;;4998464;28;19910;-78
2023/01/13 08:56:50;;;;;;;;;;;;;;;;;;5016098;28;20287;-77
2023/01/13 08:59:16;;;;;;;;;;;;;;;;;;4998276;28;19910;-77
2023/01/13 09:01:42;;;;;;;;;;;;;;;;;;4998669;28;19913;-79
2023/01/13 09:04:08;;;;;;;;;;;;;;;;;;5000952;28;19937;-76
2023/01/13 09:06:34;;;;;;;;;;;;;;;;;;5016093;28;20001;-76
2023/01/13 09:09:01;;;;;;;;;;;;;;;;;;5016304;28;20397;-76
2023/01/13 09:14:11;;;;;;;;;;;;;;;;;;5014817;28;19972;-79
2023/01/13 09:16:37;;;;;;;;;;;;;;;;;;4997358;28;19917;-79
2023/01/13 09:19:03;;;;;;;;;;;;;;;;;;5014334;28;20333;-78
2023/01/13 09:21:29;;;;;;;;;;;;;;;;;;4999203;28;19909;-77
2023/01/13 09:23:55;;;;;;;;;;;;;;;;;;4997824;28;19914;-77
2023/01/13 09:26:21;;;;;;;;;;;;;;;;;;5014437;28;19913;-77
2023/01/13 09:28:47;;;;;;;;;;;;;;;;;;4996931;28;19910;-76
2023/01/13 09:31:13;;;;;;;;;;;;;;;;;;5013828;28;19914;-76
2023/01/13 09:36:23;;;;;;;;;;;;;;;;;;5014030;28;19963;-77
2023/01/13 09:38:49;;;;;;;;;;;;;;;;;;5015069;28;19909;-77
2023/01/13 09:43:52;;;;;;;;;;;;;;;;;;5015249;28;20000;-76
2023/01/13 09:44:01;;;;;;;;;;;;;;;;;;5016967;28;19917;-79
2023/01/13 09:46:42;;;;;;;;;;;;;;;;;;5000830;28;19955;-79
2023/01/13 09:49:08;;;;;;;;;;;;;;;;;;4998917;28;19912;-81
2023/01/13 09:51:34;;;;;;;;;;;;;;;;;;4999915;28;20000;-78
2023/01/13 09:54:00;;;;;;;;;;;;;;;;;;4997324;28;20004;-77
2023/01/13 09:56:26;;;;;;;;;;;;;;;;;;5000791;28;20012;-78
2023/01/13 09:58:51;;;;;;;;;;;;;;;;;;4997948;28;19909;-77
2023/01/13 10:01:17;;;;;;;;;;;;;;;;;;4998886;28;20299;-77
2023/01/13 10:03:43;;;;;;;;;;;;;;;;;;4996160;28;19920;-77
2023/01/13 10:06:09;;;;;;;;;;;;;;;;;;5014299;28;20142;-78
2023/01/13 10:08:35;;;;;;;;;;;;;;;;;;4995988;28;19941;-77
2023/01/13 10:13:46;;;;;;;;;;;;;;;;;;5019492;28;19916;-78
2023/01/13 10:16:12;;;;;;;;;;;;;;;;;;5004206;28;19933;-79
2023/01/13 10:18:37;;;;;;;;;;;;;;;;;;5020902;28;20368;-78
2023/01/13 10:21:03;;;;;;;;;;;;;;;;;;5019233;28;19941;-79
2023/01/13 10:23:33;;;;;;;;;;;;;;;;;;5022707;28;20120;-76
2023/01/13 10:25:59;;;;;;;;;;;;;;;;;;5004825;28;19910;-78
2023/01/13 10:28:25;;;;;;;;;;;;;;;;;;5021417;28;19916;-77
2023/01/13 10:30:51;;;;;;;;;;;;;;;;;;5002895;28;19996;-77
2023/01/13 10:33:17;;;;;;;;;;;;;;;;;;5006084;28;20389;-75
2023/01/13 10:35:43;;;;;;;;;;;;;;;;;;5005116;28;19910;-76
2023/01/13 10:38:09;;;;;;;;;;;;;;;;;;5003820;28;20057;-77
2023/01/13 10:40:35;;;;;;;;;;;;;;;;;;5020992;28;20359;-77
2023/01/13 10:43:01;;;;;;;;;;;;;;;;;;5021155;28;19932;-79
2023/01/13 10:45:26;;;;;;;;;;;;;;;;;;5003610;28;19914;-78
2023/01/13 10:47:52;;;;;;;;;;;;;;;;;;5006066;28;19916;-78
2023/01/13 10:50:18;;;;;;;;;;;;;;;;;;5007136;28;19910;-78
2023/01/13 10:52:45;;;;;;;;;;;;;;;;;;5008838;28;19910;-78
2023/01/13 10:55:11;;;;;;;;;;;;;;;;;;5025111;28;19910;-77
2023/01/13 10:57:37;;;;;;;;;;;;;;;;;;5007212;28;19910;-78
2023/01/13 11:00:03;;;;;;;;;;;;;;;;;;5025425;28;19910;-78
2023/01/13 11:02:29;;;;;;;;;;;;;;;;;;5006232;28;19916;-78
2023/01/13 11:04:56;;;;;;;;;;;;;;;;;;5022221;28;19913;-77
2023/01/13 11:07:22;;;;;;;;;;;;;;;;;;5003401;28;19909;-77
2023/01/13 11:09:48;;;;;;;;;;;;;;;;;;4999868;28;20392;-77
2023/01/13 11:12:14;;;;;;;;;;;;;;;;;;4998210;28;20370;-76
2023/01/13 11:14:40;;;;;;;;;;;;;;;;;;5002078;28;19914;-77
2023/01/13 11:17:08;;;;;;;;;;;;;;;;;;5004247;28;19914;-77
2023/01/13 11:19:34;;;;;;;;;;;;;;;;;;5019102;28;19925;-78
2023/01/13 11:22:00;;;;;;;;;;;;;;;;;;4999947;28;20008;-77
2023/01/13 11:24:26;;;;;;;;;;;;;;;;;;5000039;28;19985;-77
2023/01/13 11:26:52;;;;;;;;;;;;;;;;;;5017791;28;19910;-77
2023/01/13 11:29:18;;;;;;;;;;;;;;;;;;5000085;28;20008;-79
2023/01/13 11:31:44;;;;;;;;;;;;;;;;;;4999633;28;19945;-77
2023/01/13 11:34:10;;;;;;;;;;;;;;;;;;5017343;28;19960;-77
2023/01/13 11:36:36;;;;;;;;;;;;;;;;;;4999487;28;19909;-77
2023/01/13 11:39:01;;;;;;;;;;;;;;;;;;5016805;28;19996;-77
2023/01/13 11:41:27;;;;;;;;;;;;;;;;;;4999226;28;20329;-77
2023/01/13 11:43:53;;;;;;;;;;;;;;;;;;5014882;28;19913;-77
2023/01/13 11:46:19;;;;;;;;;;;;;;;;;;5016586;28;19909;-77
2023/01/13 11:48:45;;;;;;;;;;;;;;;;;;5016725;28;20278;-76
2023/01/13 11:51:11;;;;;;;;;;;;;;;;;;5000166;28;19909;-76
2023/01/13 11:53:37;;;;;;;;;;;;;;;;;;5015580;28;19920;-77
2023/01/13 11:56:03;;;;;;;;;;;;;;;;;;4998274;28;20424;-77
2023/01/13 11:58:29;;;;;;;;;;;;;;;;;;4999629;28;19916;-76
2023/01/13 12:00:55;;;;;;;;;;;;;;;;;;5016132;28;19953;-77
2023/01/13 12:03:21;;;;;;;;;;;;;;;;;;5017398;28;19916;-77
2023/01/13 12:05:47;;;;;;;;;;;;;;;;;;5017256;28;19913;-78
2023/01/13 12:08:13;;;;;;;;;;;;;;;;;;5017674;28;20458;-77
2023/01/13 12:10:39;;;;;;;;;;;;;;;;;;4998986;28;19909;-77
2023/01/13 12:13:05;;;;;;;;;;;;;;;;;;5016631;28;19917;-77
2023/01/13 12:15:31;;;;;;;;;;;;;;;;;;5015888;28;19909;-77
2023/01/13 12:17:57;;;;;;;;;;;;;;;;;;4999051;28;19933;-77
2023/01/13 12:20:23;;;;;;;;;;;;;;;;;;5016161;28;19913;-76
2023/01/13 12:22:48;;;;;;;;;;;;;;;;;;4998837;28;19909;-77
2023/01/13 12:25:14;;;;;;;;;;;;;;;;;;4998736;28;19914;-77
2023/01/13 12:27:40;;;;;;;;;;;;;;;;;;4999534;28;19913;-76
2023/01/13 12:30:08;;;;;;;;;;;;;;;;;;4999396;28;19916;-76
2023/01/13 12:32:34;;;;;;;;;;;;;;;;;;4997287;28;19911;-77
2023/01/13 12:35:00;;;;;;;;;;;;;;;;;;5015861;28;20305;-77
2023/01/13 12:37:26;;;;;;;;;;;;;;;;;;5016160;28;20010;-77
2023/01/13 12:39:52;;;;;;;;;;;;;;;;;;4997240;28;19910;-76
2023/01/13 12:45:02;;;;;;;;;;;;;;;;;;5013965;28;20028;-77
2023/01/13 12:47:28;;;;;;;;;;;;;;;;;;5013506;28;19910;-78
2023/01/13 12:49:54;;;;;;;;;;;;;;;;;;5016127;28;19959;-77
2023/01/13 12:52:20;;;;;;;;;;;;;;;;;;4999003;28;20000;-77
2023/01/13 12:54:46;;;;;;;;;;;;;;;;;;5015778;28;19910;-77
2023/01/13 12:57:11;;;;;;;;;;;;;;;;;;4996962;28;19909;-76
2023/01/13 12:59:37;;;;;;;;;;;;;;;;;;4996629;28;19917;-76
2023/01/13 13:02:03;;;;;;;;;;;;;;;;;;4998108;28;19932;-79
2023/01/13 13:04:29;;;;;;;;;;;;;;;;;;4997130;28;20362;-76
2023/01/13 13:06:55;;;;;;;;;;;;;;;;;;4997360;28;20012;-76
2023/01/13 13:09:21;;;;;;;;;;;;;;;;;;5014807;28;19910;-76
2023/01/13 13:14:28;;;;;;;;;;;;;;;;;;5015899;28;19916;-76
2023/01/13 13:16:54;;;;;;;;;;;;;;;;;;4996228;28;19910;-77
2023/01/13 13:19:20;;;;;;;;;;;;;;;;;;5145006;23;19936;-82
2023/01/13 13:21:46;;;;;;;;;;;;;;;;;;4994301;28;19941;-82
2023/01/13 13:24:12;;;;;;;;;;;;;;;;;;4995804;28;19918;-82
2023/01/13 13:26:38;;;;;;;;;;;;;;;;;;4995805;28;19913;-82
2023/01/13 13:29:04;;;;;;;;;;;;;;;;;;4995740;28;19961;-82
2023/01/13 13:31:31;;;;;;;;;;;;;;;;;;4994781;28;19910;-82
2023/01/13 13:33:57;;;;;;;;;;;;;;;;;;5011094;28;19911;-82
2023/01/13 13:36:23;;;;;;;;;;;;;;;;;;5012439;28;19910;-82
2023/01/13 15:22:59;;;;;;;;;;;;;;;;;;5558624;23;20024;-80
2023/01/13 15:25:25;;;;;;;;;;;;;;;;;;5019537;28;20036;-80
2023/01/13 15:27:51;;;;;;;;;;;;;;;;;;5001616;28;19952;-81
2023/01/13 15:38:05;;;;;;;;;;;;;;;;;;5578499;23;19929;-79
2023/01/13 15:40:31;;;;;;;;;;;;;;;;;;5015223;28;19917;-79
2023/01/13 15:48:26;;;;;;;;;;;;;;;;;;5014560;28;19933;-79
2023/01/13 15:50:52;;;;;;;;;;;;;;;;;;4996964;28;19916;-79
2023/01/13 15:53:18;;;;;;;;;;;;;;;;;;4997123;28;19909;-80
2023/01/13 15:55:44;;;;;;;;;;;;;;;;;;5008800;28;19908;-81
2023/01/13 15:58:10;;;;;;;;;;;;;;;;;;5021769;28;19901;-83
2023/01/13 17:13:23;;;;;;;;;;;;;;;;;;5473752;23;19926;-80
2023/01/13 17:15:49;;;;;;;;;;;;;;;;;;4997719;28;19920;-80
2023/01/13 17:18:15;;;;;;;;;;;;;;;;;;5017747;28;19910;-81
2023/01/13 17:20:41;;;;;;;;;;;;;;;;;;4999517;28;19988;-81
2023/01/13 17:46:29;;;;;;;;;;;;;;;;;;5836494;23;20287;-80
2023/01/13 17:48:55;;;;;;;;;;;;;;;;;;4977260;28;19933;-81
2023/01/13 17:51:21;;;;;;;;;;;;;;;;;;4995569;28;20353;-80
2023/01/13 17:53:47;;;;;;;;;;;;;;;;;;4977485;28;19997;-80
2023/01/13 17:56:13;;;;;;;;;;;;;;;;;;4977511;28;19968;-80
2023/01/13 17:58:40;;;;;;;;;;;;;;;;;;4977296;28;19910;-80
2023/01/13 18:01:06;;;;;;;;;;;;;;;;;;4977387;28;20397;-80
2023/01/13 18:03:32;;;;;;;;;;;;;;;;;;4977156;28;19909;-80
2023/01/13 18:05:58;;;;;;;;;;;;;;;;;;4977433;28;20275;-80
2023/01/13 18:08:24;;;;;;;;;;;;;;;;;;4976931;28;19981;-80
2023/01/13 18:10:49;;;;;;;;;;;;;;;;;;4977317;28;19964;-79
2023/01/13 18:13:15;;;;;;;;;;;;;;;;;;4977511;28;19956;-80
2023/01/13 18:15:41;;;;;;;;;;;;;;;;;;4976754;28;19910;-80
2023/01/13 18:18:07;;;;;;;;;;;;;;;;;;4975699;28;19949;-81
2023/01/13 18:28:47;;;;;;;;;;;;;;;;;;4994886;28;20540;-81
2023/01/13 18:31:13;;;;;;;;;;;;;;;;;;4994805;28;20020;-81
2023/01/13 18:33:39;;;;;;;;;;;;;;;;;;4982964;28;19917;-79
2023/01/13 18:36:05;;;;;;;;;;;;;;;;;;4982777;28;19917;-79
2023/01/13 18:38:31;;;;;;;;;;;;;;;;;;4981610;28;19910;-82
2023/01/13 18:40:57;;;;;;;;;;;;;;;;;;5000080;28;19910;-81
2023/01/13 18:43:23;;;;;;;;;;;;;;;;;;4981707;28;19949;-81
2023/01/13 18:45:49;;;;;;;;;;;;;;;;;;4981725;28;19972;-80
2023/01/13 18:48:15;;;;;;;;;;;;;;;;;;4998901;28;19918;-81
2023/01/13 18:50:41;;;;;;;;;;;;;;;;;;4980703;28;19909;-81
2023/01/13 18:53:07;;;;;;;;;;;;;;;;;;4979593;28;20277;-81
2023/01/13 18:55:33;;;;;;;;;;;;;;;;;;4979701;28;19916;-81
2023/01/13 18:57:59;;;;;;;;;;;;;;;;;;4980044;28;20004;-81
2023/01/13 19:00:26;;;;;;;;;;;;;;;;;;4979684;28;19913;-81
2023/01/13 19:02:53;;;;;;;;;;;;;;;;;;4997032;28;19910;-81
2023/01/13 19:05:19;;;;;;;;;;;;;;;;;;4978821;28;19945;-81
2023/01/13 19:07:49;;;;;;;;;;;;;;;;;;4997129;28;19917;-81
2023/01/13 19:10:15;;;;;;;;;;;;;;;;;;4979020;28;19909;-81
2023/01/13 19:12:42;;;;;;;;;;;;;;;;;;4979410;28;19910;-81
2023/01/13 19:15:08;;;;;;;;;;;;;;;;;;4979163;28;19910;-81
2023/01/13 19:17:34;;;;;;;;;;;;;;;;;;4979140;28;19932;-80
2023/01/13 19:20:00;;;;;;;;;;;;;;;;;;5020337;23;19933;-77
2023/01/13 19:22:27;;;;;;;;;;;;;;;;;;4998409;28;19910;-77
2023/01/13 19:24:53;;;;;;;;;;;;;;;;;;5015723;28;20000;-76
2023/01/13 19:27:19;;;;;;;;;;;;;;;;;;5016628;28;20110;-77
2023/01/13 19:29:45;;;;;;;;;;;;;;;;;;4998892;28;19910;-77
2023/01/13 19:32:11;;;;;;;;;;;;;;;;;;5016653;28;19909;-76
2023/01/13 19:34:37;;;;;;;;;;;;;;;;;;4998676;28;19932;-76
2023/01/13 19:37:05;;;;;;;;;;;;;;;;;;5015094;28;19909;-77
2023/01/13 19:39:31;;;;;;;;;;;;;;;;;;5015909;28;19913;-76
2023/01/13 19:47:26;;;;;;;;;;;;;;;;;;5016153;28;19960;-76
2023/01/13 19:49:52;;;;;;;;;;;;;;;;;;5015911;28;19910;-77
2023/01/13 19:52:18;;;;;;;;;;;;;;;;;;5016055;28;19916;-76
2023/01/13 19:54:43;;;;;;;;;;;;;;;;;;4998347;28;19910;-76
2023/01/13 19:57:09;;;;;;;;;;;;;;;;;;5015375;28;20381;-76
2023/01/13 19:59:39;;;;;;;;;;;;;;;;;;4997458;28;19914;-76
2023/01/13 20:02:08;;;;;;;;;;;;;;;;;;4997205;28;20362;-76
2023/01/13 20:04:37;;;;;;;;;;;;;;;;;;5014418;28;19913;-77
2023/01/13 20:07:03;;;;;;;;;;;;;;;;;;4997375;28;19920;-75
2023/01/13 20:09:29;;;;;;;;;;;;;;;;;;5015037;28;20003;-76
2023/01/13 20:11:55;;;;;;;;;;;;;;;;;;4997598;28;19913;-77
2023/01/13 20:14:21;;;;;;;;;;;;;;;;;;4997622;28;19977;-75
2023/01/13 20:16:47;;;;;;;;;;;;;;;;;;5015305;28;19955;-77
2023/01/13 20:19:13;;;;;;;;;;;;;;;;;;5014907;28;19914;-76
2023/01/13 20:21:39;;;;;;;;;;;;;;;;;;5015188;28;19909;-77
2023/01/13 20:24:06;;;;;;;;;;;;;;;;;;4998049;28;19919;-76
2023/01/13 20:26:32;;;;;;;;;;;;;;;;;;5015601;28;19910;-77
2023/01/13 20:28:58;;;;;;;;;;;;;;;;;;5015017;28;19909;-77
2023/01/13 20:31:24;;;;;;;;;;;;;;;;;;4998581;28;19917;-76
2023/01/13 20:33:50;;;;;;;;;;;;;;;;;;5015636;28;19910;-76
2023/01/13 20:36:15;;;;;;;;;;;;;;;;;;5015516;28;19910;-77
2023/01/13 20:38:41;;;;;;;;;;;;;;;;;;4997773;28;19913;-77
2023/01/13 20:43:52;;;;;;;;;;;;;;;;;;5014785;28;19916;-76
2023/01/13 20:46:18;;;;;;;;;;;;;;;;;;5013596;28;20000;-77
2023/01/13 20:48:44;;;;;;;;;;;;;;;;;;4996522;28;19909;-77
2023/01/13 20:51:10;;;;;;;;;;;;;;;;;;4996688;28;19918;-76
2023/01/13 20:53:35;;;;;;;;;;;;;;;;;;4997301;28;19909;-77
2023/01/13 20:56:01;;;;;;;;;;;;;;;;;;5014056;28;19915;-77
2023/01/13 20:58:27;;;;;;;;;;;;;;;;;;4996880;28;20374;-77
2023/01/13 21:00:53;;;;;;;;;;;;;;;;;;4997378;28;19917;-77
2023/01/13 21:03:19;;;;;;;;;;;;;;;;;;4997762;28;19914;-76
2023/01/13 21:05:45;;;;;;;;;;;;;;;;;;4997098;28;19920;-76
2023/01/13 21:08:11;;;;;;;;;;;;;;;;;;5021992;28;19917;-77
2023/01/13 21:10:37;;;;;;;;;;;;;;;;;;5025337;28;19910;-77
2023/01/13 21:15:47;;;;;;;;;;;;;;;;;;5014007;28;19916;-77